Rozendo, Brazil
Current Conditions -  °F | °C
As of 4:00 PM on Monday 24 Nov 2014 (Local Time) from SBBV Reporting Station
Scattered Clouds Scattered Clouds  
Wind Chill: 82°   Ceiling: Unl
Heat Index: 86°   Visibility: 6mi
Dew Point: 70°   Wind: 16mph
Humidity: 66%   Direction: 90°E
Pressure: 29.77"   Gusts: NA
Location:  3.9°N, 64.1°W
Report Text: SBBV 242000Z 09014KT 9999 SCT040 FEW045TCU SCT080 28/21 Q1008
Loading
Personal Weather Stations






























Interactive Weather Map New forecast layout! Learn more

10-Day Weather Forecast

Advertisements
Track Severe Weather on mobile